createdAt,value
2023-03-05T00:02:29.982Z,100249.12
2023-03-05T00:05:34.343Z,100250.84
2023-03-05T00:08:37.151Z,100255.97
2023-03-05T00:11:39.811Z,100249.97
2023-03-05T00:14:42.166Z,100254.25
2023-03-05T00:17:44.824Z,100248.28
2023-03-05T00:20:47.258Z,100249.12
2023-03-05T00:23:53.518Z,100259.38
2023-03-05T00:26:56.277Z,100261.09
2023-03-05T00:29:58.924Z,100265.31
2023-03-05T00:33:01.425Z,100256.78
2023-03-05T00:36:06.239Z,100261.94
2023-03-05T00:39:09.205Z,100256.78
2023-03-05T00:42:12.034Z,100257.66
2023-03-05T00:45:14.352Z,100248.25
2023-03-05T00:48:16.958Z,100238.03
2023-03-05T00:51:19.853Z,100243.16
2023-03-05T00:54:22.862Z,100234.63
2023-03-05T00:57:25.124Z,100234.59
2023-03-05T01:00:27.867Z,100232.06
2023-03-05T01:03:32.045Z,100225.22
2023-03-05T01:06:34.902Z,100222.66
2023-03-05T01:09:37.424Z,100229.50
2023-03-05T01:12:40.341Z,100220.09
2023-03-05T01:15:42.725Z,100216.69
2023-03-05T01:18:45.290Z,100214.97
2023-03-05T01:21:47.683Z,100226.94
2023-03-05T01:24:50.555Z,100231.22
2023-03-05T01:27:52.898Z,100233.75
2023-03-05T01:30:55.580Z,100236.31
2023-03-05T01:34:00.143Z,100236.34
2023-03-05T01:37:03.107Z,100245.72
2023-03-05T01:40:06.577Z,100232.91
2023-03-05T01:43:12.283Z,100238.06
2023-03-05T01:46:23.776Z,100240.63
2023-03-05T01:49:27.977Z,100234.63
2023-03-05T01:52:33.293Z,100232.91
2023-03-05T01:55:37.393Z,100235.50
2023-03-05T01:58:39.941Z,100243.19
2023-03-05T02:01:48.177Z,100233.78
2023-03-05T02:04:54.373Z,100238.91
2023-03-05T02:07:58.304Z,100240.59
2023-03-05T02:11:02.181Z,100237.19
2023-03-05T02:14:05.364Z,100246.59
2023-03-05T02:17:08.431Z,100235.47
2023-03-05T02:20:15.857Z,100231.22
2023-03-05T02:23:19.352Z,100240.59
2023-03-05T02:26:21.953Z,100231.19
2023-03-05T02:29:24.571Z,100239.75
2023-03-05T02:32:27.117Z,100232.06
2023-03-05T02:35:29.828Z,100232.91
2023-03-05T02:38:32.324Z,100229.50
2023-03-05T02:41:35.828Z,100227.78
2023-03-05T02:44:38.249Z,100234.63
2023-03-05T02:47:41.294Z,100225.25
2023-03-05T02:50:44.684Z,100223.50
2023-03-05T02:53:49.972Z,100220.13
2023-03-05T02:56:52.500Z,100226.06
2023-03-05T02:59:55.204Z,100217.56
2023-03-05T03:02:57.770Z,100213.25
2023-03-05T03:06:00.434Z,100208.97
2023-03-05T03:09:03.087Z,100210.69
2023-03-05T03:12:06.213Z,100208.16
2023-03-05T03:15:10.150Z,100218.38
2023-03-05T03:18:12.726Z,100210.72
2023-03-05T03:21:19.600Z,100212.41
2023-03-05T03:24:22.252Z,100211.53
2023-03-05T03:27:24.609Z,100204.72
2023-03-05T03:30:27.399Z,100207.28
2023-03-05T03:33:29.702Z,100195.31
2023-03-05T03:36:32.371Z,100202.16
2023-03-05T03:39:34.775Z,100195.31
2023-03-05T03:42:37.709Z,100200.44
2023-03-05T03:45:40.569Z,100193.63
2023-03-05T03:48:43.125Z,100202.13
2023-03-05T03:51:45.907Z,100203.00
2023-03-05T03:54:49.672Z,100197.88
2023-03-05T03:57:51.938Z,100202.97
2023-03-05T04:00:54.574Z,100211.53
2023-03-05T04:03:57.404Z,100208.09
2023-03-05T04:06:59.774Z,100208.12
2023-03-05T04:10:02.512Z,100207.25
2023-03-05T04:13:04.883Z,100204.69
2023-03-05T04:16:07.877Z,100207.25
2023-03-05T04:19:10.280Z,100204.66
2023-03-05T04:22:14.444Z,100198.69
2023-03-05T04:25:17.022Z,100203.84
2023-03-05T04:28:19.687Z,100206.37
2023-03-05T04:31:22.155Z,100202.09
2023-03-05T04:34:25.183Z,100208.91
2023-03-05T04:37:27.920Z,100205.53
2023-03-05T04:40:30.703Z,100203.81
2023-03-05T04:43:33.153Z,100208.06
2023-03-05T04:46:35.845Z,100212.34
2023-03-05T04:49:38.187Z,100197.84
2023-03-05T04:52:41.992Z,100202.97
2023-03-05T04:55:44.358Z,100190.13
2023-03-05T04:58:47.544Z,100202.13
2023-03-05T05:01:49.911Z,100198.72
2023-03-05T05:04:55.667Z,100190.13
2023-03-05T05:07:58.604Z,100195.28
2023-03-05T05:11:02.482Z,100195.25
2023-03-05T05:14:04.834Z,100190.97
2023-03-05T05:17:07.510Z,100192.69
2023-03-05T05:20:11.581Z,100190.97
2023-03-05T05:23:14.460Z,100196.94
2023-03-05T05:26:16.740Z,100201.22
2023-03-05T05:29:19.570Z,100205.47
2023-03-05T05:32:24.103Z,100204.59
2023-03-05T05:35:26.835Z,100203.75
2023-03-05T05:38:29.150Z,100205.44
2023-03-05T05:41:31.892Z,100212.28
2023-03-05T05:44:35.010Z,100209.69
2023-03-05T05:47:37.625Z,100207.97
2023-03-05T05:50:41.175Z,100228.50
2023-03-05T05:53:44.325Z,100221.66
2023-03-05T05:56:46.593Z,100225.91
2023-03-05T05:59:49.252Z,100232.75
2023-03-05T06:02:51.884Z,100231.03
2023-03-05T06:05:54.613Z,100236.97
2023-03-05T06:08:57.063Z,100246.38
2023-03-05T06:11:59.745Z,100236.91
2023-03-05T06:15:02.030Z,100234.34
2023-03-05T06:18:06.196Z,100236.00
2023-03-05T06:21:11.480Z,100234.28
2023-03-05T06:24:14.482Z,100237.69
2023-03-05T06:27:17.001Z,100242.81
2023-03-05T06:30:19.680Z,100241.84
2023-03-05T06:33:22.446Z,100233.25
2023-03-05T06:36:25.753Z,100236.66
2023-03-05T06:39:28.174Z,100245.19
2023-03-05T06:42:30.918Z,100245.97
2023-03-05T06:45:33.301Z,100245.03
2023-03-05T06:48:35.903Z,100244.13
2023-03-05T06:51:39.429Z,100240.66
2023-03-05T06:54:42.129Z,100246.63
2023-03-05T06:57:44.936Z,100248.25
2023-03-05T07:00:47.797Z,100239.69
2023-03-05T07:03:51.468Z,100245.62
2023-03-05T07:06:54.249Z,100249.09
2023-03-05T07:09:56.593Z,100238.72
2023-03-05T07:12:59.556Z,100238.66
2023-03-05T07:16:05.418Z,100247.19
2023-03-05T07:19:08.120Z,100251.41
2023-03-05T07:22:10.866Z,100243.72
2023-03-05T07:25:13.938Z,100249.72
2023-03-05T07:28:16.316Z,100241.09
2023-03-05T07:31:20.412Z,100244.47
2023-03-05T07:34:26.092Z,100251.28
2023-03-05T07:37:29.762Z,100243.44
2023-03-05T07:40:32.234Z,100252.88
2023-03-05T07:43:34.970Z,100244.34
2023-03-05T07:46:37.522Z,100240.91
2023-03-05T07:49:41.741Z,100246.87
2023-03-05T07:52:44.134Z,100241.75
2023-03-05T07:55:47.029Z,100236.63
2023-03-05T07:58:49.429Z,100240.03
2023-03-05T08:01:52.172Z,100242.59
2023-03-05T08:04:54.984Z,100238.25
2023-03-05T08:07:57.312Z,100238.81
2023-03-05T08:11:04.371Z,100226.03
2023-03-05T08:14:06.801Z,100234.56
2023-03-05T08:17:09.474Z,100235.19
2023-03-05T08:20:12.160Z,100230.75
2023-03-05T08:23:15.007Z,100236.78
2023-03-05T08:26:19.108Z,100229.78
2023-03-05T08:29:22.097Z,100233.09
2023-03-05T08:32:24.804Z,100237.28
2023-03-05T08:35:27.417Z,100224.41
2023-03-05T08:38:29.894Z,100231.13
2023-03-05T08:41:32.523Z,100229.84
2023-03-05T08:44:34.960Z,100225.91
2023-03-05T08:47:37.513Z,100222.88
2023-03-05T08:50:39.868Z,100222.41
2023-03-05T08:53:43.385Z,100225.91
2023-03-05T08:56:46.127Z,100228.84
2023-03-05T08:59:48.857Z,100222.09
2023-03-05T09:02:51.653Z,100217.81
2023-03-05T09:05:54.301Z,100221.06
2023-03-05T09:08:56.748Z,100220.84
2023-03-05T09:12:00.088Z,100212.41
2023-03-05T09:15:02.607Z,100212.38
2023-03-05T09:18:05.471Z,100204.66
2023-03-05T09:21:10.236Z,100210.22
2023-03-05T09:24:13.425Z,100212.47
2023-03-05T09:27:15.723Z,100209.69
2023-03-05T09:30:18.559Z,100212.94
2023-03-05T09:33:20.884Z,100206.16
2023-03-05T09:36:25.337Z,100212.88
2023-03-05T09:39:27.637Z,100203.41
2023-03-05T09:42:49.160Z,100201.22
2023-03-05T09:46:04.606Z,100200.88
2023-03-05T09:49:07.506Z,100196.59
2023-03-05T09:52:28.234Z,100193.72
2023-03-05T09:55:40.557Z,100205.47
2023-03-05T09:58:46.728Z,100194.62
2023-03-05T10:01:51.338Z,100188.41
2023-03-05T10:04:57.766Z,100185.69
2023-03-05T10:08:01.591Z,100183.53
2023-03-05T10:11:11.542Z,100183.53
2023-03-05T10:14:15.849Z,100183.41
2023-03-05T10:17:38.006Z,100187.44
2023-03-05T10:20:46.670Z,100175.28
2023-03-05T10:23:59.919Z,100174.84
2023-03-05T10:27:28.393Z,100173.06
2023-03-05T10:30:34.163Z,100160.94
2023-03-05T10:33:36.467Z,100163.53
2023-03-05T10:36:47.438Z,100163.25
2023-03-05T10:40:09.927Z,100164.78
2023-03-05T10:43:15.618Z,100159.81
2023-03-05T10:46:19.950Z,100156.72
2023-03-05T10:49:26.640Z,100153.09
2023-03-05T10:52:35.127Z,100151.12
2023-03-05T10:55:37.745Z,100144.53
2023-03-05T10:58:40.137Z,100156.81
2023-03-05T11:02:01.179Z,100150.38
2023-03-05T11:05:05.208Z,100142.13
2023-03-05T11:08:22.741Z,100143.03
2023-03-05T11:11:25.288Z,100141.38
2023-03-05T11:14:33.448Z,100129.56
2023-03-05T11:17:38.310Z,100135.81
2023-03-05T11:20:41.151Z,100121.41
2023-03-05T11:23:43.527Z,100127.12
2023-03-05T11:26:53.113Z,100110.84
2023-03-05T11:29:55.376Z,100127.09
2023-03-05T11:33:09.372Z,100116.16
2023-03-05T11:36:21.268Z,100116.06
2023-03-05T11:39:25.286Z,100115.31
2023-03-05T11:42:28.626Z,100117.09
2023-03-05T11:45:32.749Z,100111.78
2023-03-05T11:48:36.496Z,100109.59
2023-03-05T11:51:54.671Z,100102.50
2023-03-05T11:55:06.035Z,100097.69
2023-03-05T11:58:11.595Z,100089.22
2023-03-05T12:01:24.750Z,100080.75
2023-03-05T12:04:27.676Z,100090.44
2023-03-05T12:07:41.706Z,100089.53
2023-03-05T12:10:44.467Z,100072.25
2023-03-05T12:13:56.527Z,100078.16
2023-03-05T12:17:12.732Z,100068.09
2023-03-05T12:20:23.918Z,100060.69
2023-03-05T12:23:28.113Z,100062.62
2023-03-05T12:26:49.055Z,100050.63
2023-03-05T12:29:52.493Z,100040.69
2023-03-05T12:32:55.782Z,100041.81
2023-03-05T12:36:17.199Z,100034.19
2023-03-05T12:39:38.355Z,100028.09
2023-03-05T12:42:41.018Z,100027.59
2023-03-05T12:45:43.677Z,100025.31
2023-03-05T12:48:46.478Z,100025.34
2023-03-05T12:51:50.256Z,100018.25
2023-03-05T12:55:20.312Z,100015.19
2023-03-05T12:58:31.770Z,100010.78
2023-03-05T13:01:40.641Z,100006.97
2023-03-05T13:04:45.233Z,100001.12
2023-03-05T13:07:48.555Z,100006.13
2023-03-05T13:10:55.138Z,100001.75
2023-03-05T13:13:58.349Z,99999.31
2023-03-05T13:17:00.894Z,99997.34
2023-03-05T13:20:23.713Z,99995.59
2023-03-05T13:23:27.176Z,100009.41
2023-03-05T13:26:40.546Z,100010.78
2023-03-05T13:29:51.370Z,100001.38
2023-03-05T13:32:56.830Z,100007.34
2023-03-05T13:35:59.779Z,100004.41
2023-03-05T13:39:04.097Z,99992.00
2023-03-05T13:42:06.437Z,99994.66
2023-03-05T13:45:27.740Z,99991.78
2023-03-05T13:48:30.193Z,99991.09
2023-03-05T13:51:42.995Z,99999.47
2023-03-05T13:54:45.311Z,99994.25
2023-03-05T13:57:52.950Z,99998.56
2023-03-05T14:01:25.143Z,100003.94
2023-03-05T14:04:32.420Z,100000.78
2023-03-05T14:07:41.670Z,99986.41
2023-03-05T14:10:45.984Z,99991.00
2023-03-05T14:13:49.029Z,99989.53
2023-03-05T14:16:52.183Z,99999.00
2023-03-05T14:20:06.971Z,99997.34
2023-03-05T14:23:45.261Z,99996.56
2023-03-05T14:26:49.677Z,100002.13
2023-03-05T14:29:52.560Z,99983.38
2023-03-05T14:32:55.893Z,99974.69
2023-03-05T14:35:59.801Z,99983.38
2023-03-05T14:39:02.251Z,99971.44
2023-03-05T14:42:24.688Z,99961.97
2023-03-05T14:45:27.176Z,99973.97
2023-03-05T14:48:29.753Z,99955.00
2023-03-05T14:51:34.490Z,99949.88
2023-03-05T14:54:38.304Z,99939.69
2023-03-05T14:57:40.769Z,99930.16
2023-03-05T15:00:43.867Z,99941.19
2023-03-05T15:03:46.323Z,99941.84
2023-03-05T15:06:51.208Z,99935.47
2023-03-05T15:09:53.669Z,99946.41
2023-03-05T15:12:56.374Z,99944.44
2023-03-05T15:15:59.133Z,99938.59
2023-03-05T15:19:03.720Z,99946.34
2023-03-05T15:22:06.603Z,99949.44
2023-03-05T15:25:09.466Z,99948.72
2023-03-05T15:28:11.814Z,99954.25
2023-03-05T15:31:16.164Z,99954.69
2023-03-05T15:34:18.599Z,99945.47
2023-03-05T15:37:21.238Z,99945.38
2023-03-05T15:40:24.412Z,99949.63
2023-03-05T15:43:27.218Z,99948.94
2023-03-05T15:46:29.616Z,99959.50
2023-03-05T15:49:32.908Z,99956.25
2023-03-05T15:52:35.700Z,99958.03
2023-03-05T15:55:39.129Z,99959.00
2023-03-05T15:58:43.368Z,99952.16
2023-03-05T16:01:49.030Z,99954.06
2023-03-05T16:04:51.948Z,99968.91
2023-03-05T16:07:54.850Z,99974.22
2023-03-05T16:10:57.754Z,99971.72
2023-03-05T16:14:02.733Z,99969.34
2023-03-05T16:17:05.661Z,99978.87
2023-03-05T16:20:08.989Z,99976.50
2023-03-05T16:23:11.724Z,99978.28
2023-03-05T16:26:14.000Z,99984.31
2023-03-05T16:29:17.047Z,99982.72
2023-03-05T16:32:19.610Z,99979.38
2023-03-05T16:35:22.438Z,99981.16
2023-03-05T16:38:24.785Z,99981.19
2023-03-05T16:41:27.608Z,99977.87
2023-03-05T16:44:29.948Z,99981.41
2023-03-05T16:47:32.654Z,99978.00
2023-03-05T16:50:35.017Z,99978.94
2023-03-05T16:53:38.171Z,99991.78
2023-03-05T16:56:40.578Z,99985.81
2023-03-05T16:59:43.878Z,99984.94
2023-03-05T17:02:46.933Z,99982.44
2023-03-05T17:05:49.555Z,99985.94
2023-03-05T17:08:52.224Z,99984.19
2023-03-05T17:11:55.091Z,99989.41
2023-03-05T17:14:57.529Z,99991.13
2023-03-05T17:18:00.336Z,99992.91
2023-03-05T17:21:03.864Z,99994.59
2023-03-05T17:24:06.768Z,100005.88
2023-03-05T17:27:09.690Z,99993.03
2023-03-05T17:30:12.976Z,99997.41
2023-03-05T17:33:15.427Z,100000.91
2023-03-05T17:36:19.919Z,100011.25
2023-03-05T17:39:22.319Z,100001.03
2023-03-05T17:42:24.865Z,100000.16
2023-03-05T17:45:27.430Z,99995.06
2023-03-05T17:48:30.628Z,100004.47
2023-03-05T17:51:32.924Z,100004.59
2023-03-05T17:54:35.640Z,100007.19
2023-03-05T17:57:42.514Z,100006.44
2023-03-05T18:00:45.260Z,100014.03
2023-03-05T18:03:47.933Z,100010.56
2023-03-05T18:06:50.271Z,100011.34
2023-03-05T18:09:52.921Z,100014.75
2023-03-05T18:12:55.507Z,100012.22
2023-03-05T18:15:59.466Z,100007.09
2023-03-05T18:19:01.846Z,99995.88
2023-03-05T18:22:04.865Z,100000.16
2023-03-05T18:25:07.526Z,100007.88
2023-03-05T18:28:11.589Z,99994.94
2023-03-05T18:31:13.978Z,100002.72
2023-03-05T18:34:17.952Z,99998.41
2023-03-05T18:37:20.253Z,100000.16
2023-03-05T18:40:24.490Z,100000.16
2023-03-05T18:43:27.614Z,99997.56
2023-03-05T18:46:30.377Z,100003.59
2023-03-05T18:49:32.854Z,100001.94
2023-03-05T18:52:37.446Z,100001.09
2023-03-05T18:55:42.786Z,100001.94
2023-03-05T18:58:47.680Z,99996.75
2023-03-05T19:01:49.993Z,99995.03
2023-03-05T19:04:52.749Z,99996.03
2023-03-05T19:07:55.876Z,99988.41
2023-03-05T19:10:58.496Z,99996.13
2023-03-05T19:14:00.806Z,100001.28
2023-03-05T19:17:03.400Z,99996.25
2023-03-05T19:20:07.756Z,99996.41
2023-03-05T19:23:10.501Z,99994.66
2023-03-05T19:26:13.470Z,99995.59
2023-03-05T19:29:16.563Z,99989.53
2023-03-05T19:32:21.103Z,99992.97
2023-03-05T19:35:24.123Z,99998.91
2023-03-05T19:38:26.526Z,99992.97
2023-03-05T19:41:29.498Z,99987.03
2023-03-05T19:44:32.288Z,99988.81
2023-03-05T19:47:34.983Z,99987.19
2023-03-05T19:50:37.362Z,99988.91
2023-03-05T19:53:40.693Z,99994.09
2023-03-05T19:56:44.128Z,99990.69
2023-03-05T19:59:46.822Z,99995.88
2023-03-05T20:02:49.186Z,99989.84
2023-03-05T20:05:51.854Z,99983.00
2023-03-05T20:08:54.976Z,99987.28
2023-03-05T20:11:58.363Z,99989.84
2023-03-05T20:15:00.634Z,99983.78
2023-03-05T20:18:03.354Z,99977.75
2023-03-05T20:21:05.879Z,99979.44
2023-03-05T20:24:10.590Z,99982.94
2023-03-05T20:27:13.144Z,99978.69
2023-03-05T20:30:17.562Z,99981.25
2023-03-05T20:33:19.922Z,99977.75
2023-03-05T20:36:29.538Z,99970.03
2023-03-05T20:39:32.044Z,99975.97
2023-03-05T20:42:34.726Z,99974.25
2023-03-05T20:45:37.476Z,99972.34
2023-03-05T20:48:40.060Z,99975.84
2023-03-05T20:51:42.496Z,99975.00
2023-03-05T20:54:47.746Z,99980.16
2023-03-05T20:57:50.143Z,99969.78
2023-03-05T21:00:53.230Z,99978.34
2023-03-05T21:03:58.632Z,99973.19
2023-03-05T21:07:01.181Z,99974.88
2023-03-05T21:10:03.799Z,99969.72
2023-03-05T21:13:06.473Z,99971.47
2023-03-05T21:16:09.940Z,99971.41
2023-03-05T21:19:12.614Z,99973.94
2023-03-05T21:22:14.922Z,99967.19
2023-03-05T21:25:21.179Z,99970.63
2023-03-05T21:28:23.956Z,99968.91
2023-03-05T21:31:26.786Z,99968.13
2023-03-05T21:34:30.172Z,99969.78
2023-03-05T21:37:32.836Z,99971.50
2023-03-05T21:40:36.402Z,99972.41
2023-03-05T21:43:39.182Z,99970.75
2023-03-05T21:46:42.742Z,99964.81
2023-03-05T21:49:45.579Z,99958.84
2023-03-05T21:52:48.004Z,99961.47
2023-03-05T21:56:16.758Z,99962.25
2023-03-05T21:59:24.879Z,99961.31
2023-03-05T22:02:27.600Z,99953.63
2023-03-05T22:05:30.224Z,99944.25
2023-03-05T22:08:32.856Z,99947.75
2023-03-05T22:11:35.430Z,99946.06
2023-03-05T22:14:37.871Z,99951.94
2023-03-05T22:17:41.429Z,99943.44
2023-03-05T22:20:43.982Z,99947.63
2023-03-05T22:23:46.536Z,99944.25
2023-03-05T22:26:48.883Z,99938.25
2023-03-05T22:29:51.558Z,99941.72
2023-03-05T22:32:53.977Z,99934.00
2023-03-05T22:35:57.039Z,99929.72
2023-03-05T22:38:59.512Z,99924.44
2023-03-05T22:42:02.070Z,99929.53
2023-03-05T22:45:04.536Z,99929.53
2023-03-05T22:48:09.838Z,99919.09
2023-03-05T22:51:12.722Z,99920.84
2023-03-05T22:54:15.415Z,99915.78
2023-03-05T22:57:17.707Z,99919.09
2023-03-05T23:00:23.475Z,99920.81
2023-03-05T23:03:25.929Z,99916.59
2023-03-05T23:06:28.890Z,99919.13
2023-03-05T23:09:31.234Z,99924.34
2023-03-05T23:12:36.560Z,99916.66
2023-03-05T23:15:39.074Z,99917.25
2023-03-05T23:18:41.832Z,99917.22
2023-03-05T23:21:44.180Z,99913.69
2023-03-05T23:24:46.949Z,99909.56
2023-03-05T23:27:49.517Z,99903.50
2023-03-05T23:30:52.185Z,99909.47
2023-03-05T23:33:54.757Z,99907.03
2023-03-05T23:37:00.373Z,99906.16
2023-03-05T23:40:03.404Z,99913.03
2023-03-05T23:43:06.128Z,99913.94
2023-03-05T23:46:11.924Z,99914.78
2023-03-05T23:49:14.784Z,99912.16
2023-03-05T23:52:17.302Z,99900.19
2023-03-05T23:55:24.411Z,99904.47
2023-03-05T23:58:27.248Z,99907.78
